sensor_id;sensor_type;location;lat;lon;timestamp;P1;durP1;ratioP1;P2;durP2;ratioP2
23642;SDS011;11998;55.788;37.572;2023-03-01T00:00:51;1.87;;;1.20;;
23642;SDS011;11998;55.788;37.572;2023-03-01T00:01:51;5.23;;;1.30;;
23642;SDS011;11998;55.788;37.572;2023-03-01T00:02:52;3.53;;;1.10;;
23642;SDS011;11998;55.788;37.572;2023-03-01T00:03:53;2.87;;;1.20;;
23642;SDS011;11998;55.788;37.572;2023-03-01T00:04:54;1.67;;;0.80;;
23642;SDS011;11998;55.788;37.572;2023-03-01T00:05:54;5.20;;;1.67;;
23642;SDS011;11998;55.788;37.572;2023-03-01T00:06:56;1.77;;;0.98;;
23642;SDS011;11998;55.788;37.572;2023-03-01T00:07:56;5.53;;;1.37;;
23642;SDS011;11998;55.788;37.572;2023-03-01T00:08:57;2.90;;;1.23;;
23642;SDS011;11998;55.788;37.572;2023-03-01T00:09:58;2.17;;;0.90;;
23642;SDS011;11998;55.788;37.572;2023-03-01T00:12:06;2.35;;;1.20;;
23642;SDS011;11998;55.788;37.572;2023-03-01T00:13:07;3.47;;;0.90;;
23642;SDS011;11998;55.788;37.572;2023-03-01T00:14:07;3.00;;;1.20;;
23642;SDS011;11998;55.788;37.572;2023-03-01T00:15:08;2.80;;;1.43;;
23642;SDS011;11998;55.788;37.572;2023-03-01T00:16:11;4.67;;;1.37;;
23642;SDS011;11998;55.788;37.572;2023-03-01T00:17:15;3.85;;;1.17;;
23642;SDS011;11998;55.788;37.572;2023-03-01T00:18:16;4.47;;;1.20;;
23642;SDS011;11998;55.788;37.572;2023-03-01T00:19:17;2.93;;;1.00;;
23642;SDS011;11998;55.788;37.572;2023-03-01T00:20:18;2.88;;;0.95;;
23642;SDS011;11998;55.788;37.572;2023-03-01T00:21:19;5.77;;;1.43;;
23642;SDS011;11998;55.788;37.572;2023-03-01T00:22:21;3.45;;;1.10;;
23642;SDS011;11998;55.788;37.572;2023-03-01T00:23:21;5.77;;;1.60;;
23642;SDS011;11998;55.788;37.572;2023-03-01T00:24:22;3.78;;;1.20;;
23642;SDS011;11998;55.788;37.572;2023-03-01T00:25:23;3.70;;;1.37;;
23642;SDS011;11998;55.788;37.572;2023-03-01T00:26:24;3.50;;;1.20;;
23642;SDS011;11998;55.788;37.572;2023-03-01T00:27:26;5.80;;;1.60;;
23642;SDS011;11998;55.788;37.572;2023-03-01T00:28:26;3.23;;;1.30;;
23642;SDS011;11998;55.788;37.572;2023-03-01T00:29:27;4.30;;;1.60;;
23642;SDS011;11998;55.788;37.572;2023-03-01T00:30:27;6.30;;;1.67;;
23642;SDS011;11998;55.788;37.572;2023-03-01T00:31:30;6.00;;;2.00;;
23642;SDS011;11998;55.788;37.572;2023-03-01T00:32:32;6.50;;;1.73;;
23642;SDS011;11998;55.788;37.572;2023-03-01T00:33:33;7.40;;;1.87;;
23642;SDS011;11998;55.788;37.572;2023-03-01T00:34:34;5.40;;;2.08;;
23642;SDS011;11998;55.788;37.572;2023-03-01T00:35:34;6.20;;;1.90;;
23642;SDS011;11998;55.788;37.572;2023-03-01T00:36:36;7.80;;;2.30;;
23642;SDS011;11998;55.788;37.572;2023-03-01T00:37:37;9.27;;;2.58;;
23642;SDS011;11998;55.788;37.572;2023-03-01T00:38:38;7.73;;;2.00;;
23642;SDS011;11998;55.788;37.572;2023-03-01T00:39:40;10.50;;;2.28;;
23642;SDS011;11998;55.788;37.572;2023-03-01T00:40:41;6.05;;;1.90;;
23642;SDS011;11998;55.788;37.572;2023-03-01T00:41:43;10.40;;;2.27;;
23642;SDS011;11998;55.788;37.572;2023-03-01T00:42:44;11.25;;;2.28;;
23642;SDS011;11998;55.788;37.572;2023-03-01T00:43:45;5.33;;;2.03;;
23642;SDS011;11998;55.788;37.572;2023-03-01T00:44:46;7.45;;;2.30;;
23642;SDS011;11998;55.788;37.572;2023-03-01T00:45:46;7.83;;;2.20;;
23642;SDS011;11998;55.788;37.572;2023-03-01T00:46:47;6.70;;;1.67;;
23642;SDS011;11998;55.788;37.572;2023-03-01T00:47:48;8.97;;;2.10;;
23642;SDS011;11998;55.788;37.572;2023-03-01T00:48:49;7.70;;;1.90;;
23642;SDS011;11998;55.788;37.572;2023-03-01T00:49:49;6.53;;;1.77;;
23642;SDS011;11998;55.788;37.572;2023-03-01T00:50:50;6.30;;;1.90;;
23642;SDS011;11998;55.788;37.572;2023-03-01T00:51:50;5.30;;;1.27;;
23642;SDS011;11998;55.788;37.572;2023-03-01T00:52:54;3.37;;;1.40;;
23642;SDS011;11998;55.788;37.572;2023-03-01T00:53:58;5.90;;;1.90;;
23642;SDS011;11998;55.788;37.572;2023-03-01T00:55:00;5.60;;;1.77;;
23642;SDS011;11998;55.788;37.572;2023-03-01T00:56:01;3.30;;;1.20;;
23642;SDS011;11998;55.788;37.572;2023-03-01T00:57:03;4.28;;;1.38;;
23642;SDS011;11998;55.788;37.572;2023-03-01T00:58:03;3.10;;;1.20;;
23642;SDS011;11998;55.788;37.572;2023-03-01T00:59:04;3.33;;;0.93;;
23642;SDS011;11998;55.788;37.572;2023-03-01T01:00:05;6.03;;;1.20;;
23642;SDS011;11998;55.788;37.572;2023-03-01T01:01:08;3.25;;;1.10;;
23642;SDS011;11998;55.788;37.572;2023-03-01T01:02:17;2.83;;;1.15;;
23642;SDS011;11998;55.788;37.572;2023-03-01T01:03:18;4.38;;;1.25;;
23642;SDS011;11998;55.788;37.572;2023-03-01T01:04:19;3.00;;;1.10;;
23642;SDS011;11998;55.788;37.572;2023-03-01T01:05:20;3.20;;;0.90;;
23642;SDS011;11998;55.788;37.572;2023-03-01T01:06:21;3.23;;;0.90;;
23642;SDS011;11998;55.788;37.572;2023-03-01T01:07:26;4.45;;;0.98;;
23642;SDS011;11998;55.788;37.572;2023-03-01T01:08:27;5.40;;;1.30;;
23642;SDS011;11998;55.788;37.572;2023-03-01T01:09:27;4.70;;;1.20;;
23642;SDS011;11998;55.788;37.572;2023-03-01T01:10:28;3.17;;;0.90;;
23642;SDS011;11998;55.788;37.572;2023-03-01T01:11:29;1.10;;;0.63;;
23642;SDS011;11998;55.788;37.572;2023-03-01T01:12:30;3.33;;;1.10;;
23642;SDS011;11998;55.788;37.572;2023-03-01T01:13:31;3.60;;;1.00;;
23642;SDS011;11998;55.788;37.572;2023-03-01T01:14:31;2.43;;;0.83;;
23642;SDS011;11998;55.788;37.572;2023-03-01T01:15:35;4.37;;;1.00;;
23642;SDS011;11998;55.788;37.572;2023-03-01T01:16:35;4.10;;;1.25;;
23642;SDS011;11998;55.788;37.572;2023-03-01T01:17:36;3.50;;;1.40;;
23642;SDS011;11998;55.788;37.572;2023-03-01T01:18:36;3.33;;;1.20;;
23642;SDS011;11998;55.788;37.572;2023-03-01T01:19:37;2.40;;;1.00;;
23642;SDS011;11998;55.788;37.572;2023-03-01T01:20:37;1.87;;;1.00;;
23642;SDS011;11998;55.788;37.572;2023-03-01T01:21:38;3.73;;;1.27;;
23642;SDS011;11998;55.788;37.572;2023-03-01T01:22:39;4.85;;;1.15;;
23642;SDS011;11998;55.788;37.572;2023-03-01T01:23:40;2.93;;;1.10;;
23642;SDS011;11998;55.788;37.572;2023-03-01T01:24:42;2.45;;;0.88;;
23642;SDS011;11998;55.788;37.572;2023-03-01T01:25:43;2.80;;;1.07;;
23642;SDS011;11998;55.788;37.572;2023-03-01T01:26:43;2.40;;;0.70;;
23642;SDS011;11998;55.788;37.572;2023-03-01T01:27:44;1.67;;;1.10;;
23642;SDS011;11998;55.788;37.572;2023-03-01T01:28:45;1.93;;;1.07;;
23642;SDS011;11998;55.788;37.572;2023-03-01T01:29:46;3.35;;;1.08;;
23642;SDS011;11998;55.788;37.572;2023-03-01T01:30:46;3.33;;;0.90;;
23642;SDS011;11998;55.788;37.572;2023-03-01T01:31:47;4.47;;;1.10;;
23642;SDS011;11998;55.788;37.572;2023-03-01T01:32:47;4.50;;;0.90;;
23642;SDS011;11998;55.788;37.572;2023-03-01T01:33:48;2.87;;;0.90;;
23642;SDS011;11998;55.788;37.572;2023-03-01T01:34:48;2.80;;;1.00;;
23642;SDS011;11998;55.788;37.572;2023-03-01T01:35:49;2.10;;;0.90;;
23642;SDS011;11998;55.788;37.572;2023-03-01T01:36:50;3.53;;;1.10;;
23642;SDS011;11998;55.788;37.572;2023-03-01T01:37:53;2.10;;;0.93;;
23642;SDS011;11998;55.788;37.572;2023-03-01T01:38:54;1.80;;;0.90;;
23642;SDS011;11998;55.788;37.572;2023-03-01T01:39:55;3.70;;;1.00;;
23642;SDS011;11998;55.788;37.572;2023-03-01T01:40:55;3.70;;;0.90;;
23642;SDS011;11998;55.788;37.572;2023-03-01T01:41:56;1.97;;;0.93;;
23642;SDS011;11998;55.788;37.572;2023-03-01T01:42:56;3.27;;;0.90;;
23642;SDS011;11998;55.788;37.572;2023-03-01T01:44:10;1.53;;;0.83;;
23642;SDS011;11998;55.788;37.572;2023-03-01T01:46:35;2.25;;;0.80;;
23642;SDS011;11998;55.788;37.572;2023-03-01T01:47:39;3.20;;;0.80;;
23642;SDS011;11998;55.788;37.572;2023-03-01T01:48:41;4.10;;;1.10;;
23642;SDS011;11998;55.788;37.572;2023-03-01T01:49:51;3.35;;;1.17;;
23642;SDS011;11998;55.788;37.572;2023-03-01T01:50:57;2.75;;;0.80;;
23642;SDS011;11998;55.788;37.572;2023-03-01T01:52:03;2.38;;;0.77;;
23642;SDS011;11998;55.788;37.572;2023-03-01T01:53:09;3.03;;;0.98;;
23642;SDS011;11998;55.788;37.572;2023-03-01T01:54:24;1.63;;;0.90;;
23642;SDS011;11998;55.788;37.572;2023-03-01T01:55:30;3.17;;;0.98;;
23642;SDS011;11998;55.788;37.572;2023-03-01T01:56:31;3.17;;;1.63;;
23642;SDS011;11998;55.788;37.572;2023-03-01T01:57:39;3.97;;;0.90;;
23642;SDS011;11998;55.788;37.572;2023-03-01T01:58:43;2.50;;;1.00;;
23642;SDS011;11998;55.788;37.572;2023-03-01T01:59:45;3.63;;;0.90;;
23642;SDS011;11998;55.788;37.572;2023-03-01T02:00:51;1.77;;;0.80;;
23642;SDS011;11998;55.788;37.572;2023-03-01T02:01:52;3.00;;;1.00;;
23642;SDS011;11998;55.788;37.572;2023-03-01T02:02:56;3.97;;;1.02;;
23642;SDS011;11998;55.788;37.572;2023-03-01T02:04:00;3.03;;;0.93;;
23642;SDS011;11998;55.788;37.572;2023-03-01T02:05:06;3.10;;;1.00;;
23642;SDS011;11998;55.788;37.572;2023-03-01T02:07:33;4.85;;;0.85;;
23642;SDS011;11998;55.788;37.572;2023-03-01T02:08:35;3.17;;;0.90;;
23642;SDS011;11998;55.788;37.572;2023-03-01T02:09:37;4.95;;;0.63;;
23642;SDS011;11998;55.788;37.572;2023-03-01T02:10:38;1.37;;;0.97;;
23642;SDS011;11998;55.788;37.572;2023-03-01T02:11:40;2.80;;;0.88;;
23642;SDS011;11998;55.788;37.572;2023-03-01T02:12:41;2.65;;;0.80;;
23642;SDS011;11998;55.788;37.572;2023-03-01T02:13:43;1.65;;;0.70;;
23642;SDS011;11998;55.788;37.572;2023-03-01T02:14:47;2.20;;;0.50;;
23642;SDS011;11998;55.788;37.572;2023-03-01T02:15:47;2.27;;;0.73;;
23642;SDS011;11998;55.788;37.572;2023-03-01T02:16:48;2.93;;;1.00;;
23642;SDS011;11998;55.788;37.572;2023-03-01T02:17:49;1.48;;;0.52;;
23642;SDS011;11998;55.788;37.572;2023-03-01T02:18:51;2.58;;;0.70;;
23642;SDS011;11998;55.788;37.572;2023-03-01T02:22:38;3.95;;;0.70;;
23642;SDS011;11998;55.788;37.572;2023-03-01T02:23:39;1.40;;;0.50;;
23642;SDS011;11998;55.788;37.572;2023-03-01T02:24:43;1.83;;;0.97;;
23642;SDS011;11998;55.788;37.572;2023-03-01T02:27:01;4.22;;;0.70;;
23642;SDS011;11998;55.788;37.572;2023-03-01T02:29:11;5.18;;;0.90;;
23642;SDS011;11998;55.788;37.572;2023-03-01T02:30:12;3.57;;;0.60;;
23642;SDS011;11998;55.788;37.572;2023-03-01T02:31:14;2.25;;;0.70;;
23642;SDS011;11998;55.788;37.572;2023-03-01T02:32:36;1.90;;;0.68;;
23642;SDS011;11998;55.788;37.572;2023-03-01T02:33:37;3.13;;;0.70;;
23642;SDS011;11998;55.788;37.572;2023-03-01T02:34:39;0.93;;;0.50;;
23642;SDS011;11998;55.788;37.572;2023-03-01T02:35:39;3.03;;;0.63;;
23642;SDS011;11998;55.788;37.572;2023-03-01T02:36:42;2.43;;;0.70;;
23642;SDS011;11998;55.788;37.572;2023-03-01T02:37:47;3.33;;;0.70;;
23642;SDS011;11998;55.788;37.572;2023-03-01T02:38:48;3.97;;;0.85;;
23642;SDS011;11998;55.788;37.572;2023-03-01T02:39:57;2.25;;;0.98;;
23642;SDS011;11998;55.788;37.572;2023-03-01T02:40:59;3.10;;;0.68;;
23642;SDS011;11998;55.788;37.572;2023-03-01T02:42:03;1.75;;;0.75;;
23642;SDS011;11998;55.788;37.572;2023-03-01T02:43:05;2.80;;;0.82;;
23642;SDS011;11998;55.788;37.572;2023-03-01T02:44:10;1.17;;;0.68;;
23642;SDS011;11998;55.788;37.572;2023-03-01T02:45:10;1.87;;;0.70;;
23642;SDS011;11998;55.788;37.572;2023-03-01T02:46:21;1.50;;;0.80;;
23642;SDS011;11998;55.788;37.572;2023-03-01T02:47:24;1.73;;;0.80;;
23642;SDS011;11998;55.788;37.572;2023-03-01T02:48:25;2.67;;;1.07;;
23642;SDS011;11998;55.788;37.572;2023-03-01T02:49:27;2.60;;;0.83;;
23642;SDS011;11998;55.788;37.572;2023-03-01T02:51:34;2.73;;;0.90;;
23642;SDS011;11998;55.788;37.572;2023-03-01T02:52:47;2.35;;;0.68;;
23642;SDS011;11998;55.788;37.572;2023-03-01T02:55:38;2.95;;;0.77;;
23642;SDS011;11998;55.788;37.572;2023-03-01T02:56:40;3.83;;;0.70;;
23642;SDS011;11998;55.788;37.572;2023-03-01T02:57:44;2.78;;;0.90;;
23642;SDS011;11998;55.788;37.572;2023-03-01T02:58:46;2.78;;;0.80;;
23642;SDS011;11998;55.788;37.572;2023-03-01T02:59:51;5.47;;;1.00;;
23642;SDS011;11998;55.788;37.572;2023-03-01T03:00:54;3.97;;;1.10;;
23642;SDS011;11998;55.788;37.572;2023-03-01T03:01:55;3.20;;;1.17;;
23642;SDS011;11998;55.788;37.572;2023-03-01T03:02:55;2.27;;;1.00;;
23642;SDS011;11998;55.788;37.572;2023-03-01T03:03:57;1.85;;;0.52;;
23642;SDS011;11998;55.788;37.572;2023-03-01T03:05:00;3.35;;;0.80;;
23642;SDS011;11998;55.788;37.572;2023-03-01T03:06:00;2.37;;;0.90;;
23642;SDS011;11998;55.788;37.572;2023-03-01T03:07:01;2.13;;;0.73;;
23642;SDS011;11998;55.788;37.572;2023-03-01T03:08:02;3.00;;;0.70;;
23642;SDS011;11998;55.788;37.572;2023-03-01T03:09:03;3.78;;;0.80;;
23642;SDS011;11998;55.788;37.572;2023-03-01T03:10:06;4.85;;;1.10;;
23642;SDS011;11998;55.788;37.572;2023-03-01T03:11:09;2.20;;;0.52;;
23642;SDS011;11998;55.788;37.572;2023-03-01T03:12:09;3.80;;;1.27;;
23642;SDS011;11998;55.788;37.572;2023-03-01T03:13:11;2.03;;;0.70;;
23642;SDS011;11998;55.788;37.572;2023-03-01T03:14:14;2.17;;;1.13;;
23642;SDS011;11998;55.788;37.572;2023-03-01T03:15:15;4.00;;;0.88;;
23642;SDS011;11998;55.788;37.572;2023-03-01T03:16:16;2.20;;;0.93;;
23642;SDS011;11998;55.788;37.572;2023-03-01T03:17:16;2.50;;;0.90;;
23642;SDS011;11998;55.788;37.572;2023-03-01T03:18:17;2.30;;;0.70;;
23642;SDS011;11998;55.788;37.572;2023-03-01T03:19:19;2.97;;;0.80;;
23642;SDS011;11998;55.788;37.572;2023-03-01T03:20:20;3.70;;;1.00;;
23642;SDS011;11998;55.788;37.572;2023-03-01T03:21:23;2.95;;;0.82;;
23642;SDS011;11998;55.788;37.572;2023-03-01T03:22:23;1.87;;;1.00;;
23642;SDS011;11998;55.788;37.572;2023-03-01T03:23:24;2.67;;;0.70;;
23642;SDS011;11998;55.788;37.572;2023-03-01T03:24:25;2.17;;;1.08;;
23642;SDS011;11998;55.788;37.572;2023-03-01T03:25:27;2.95;;;0.90;;
23642;SDS011;11998;55.788;37.572;2023-03-01T03:26:29;2.28;;;0.52;;
23642;SDS011;11998;55.788;37.572;2023-03-01T03:27:29;3.23;;;0.70;;
23642;SDS011;11998;55.788;37.572;2023-03-01T03:28:32;1.83;;;0.88;;
23642;SDS011;11998;55.788;37.572;2023-03-01T03:29:34;0.80;;;0.65;;
23642;SDS011;11998;55.788;37.572;2023-03-01T03:30:35;3.80;;;0.80;;
23642;SDS011;11998;55.788;37.572;2023-03-01T03:31:38;3.65;;;0.82;;
23642;SDS011;11998;55.788;37.572;2023-03-01T03:32:40;1.60;;;0.80;;
23642;SDS011;11998;55.788;37.572;2023-03-01T03:33:42;3.22;;;0.80;;
23642;SDS011;11998;55.788;37.572;2023-03-01T03:34:42;3.20;;;0.93;;
23642;SDS011;11998;55.788;37.572;2023-03-01T03:35:44;2.60;;;0.90;;
23642;SDS011;11998;55.788;37.572;2023-03-01T03:36:46;2.58;;;1.23;;
23642;SDS011;11998;55.788;37.572;2023-03-01T03:37:46;1.90;;;0.97;;
23642;SDS011;11998;55.788;37.572;2023-03-01T03:39:02;4.00;;;0.90;;
23642;SDS011;11998;55.788;37.572;2023-03-01T03:40:03;1.17;;;0.70;;
23642;SDS011;11998;55.788;37.572;2023-03-01T03:41:05;7.13;;;1.20;;
23642;SDS011;11998;55.788;37.572;2023-03-01T03:42:07;2.13;;;1.20;;
23642;SDS011;11998;55.788;37.572;2023-03-01T03:43:10;1.93;;;0.60;;
23642;SDS011;11998;55.788;37.572;2023-03-01T03:44:13;1.45;;;0.80;;
23642;SDS011;11998;55.788;37.572;2023-03-01T03:45:13;3.03;;;0.90;;
23642;SDS011;11998;55.788;37.572;2023-03-01T03:46:15;1.60;;;0.80;;
23642;SDS011;11998;55.788;37.572;2023-03-01T03:47:17;3.55;;;0.90;;
23642;SDS011;11998;55.788;37.572;2023-03-01T03:48:18;1.37;;;0.70;;
23642;SDS011;11998;55.788;37.572;2023-03-01T03:49:18;5.93;;;0.90;;
23642;SDS011;11998;55.788;37.572;2023-03-01T03:50:19;2.67;;;0.67;;
23642;SDS011;11998;55.788;37.572;2023-03-01T03:51:19;4.20;;;1.30;;
23642;SDS011;11998;55.788;37.572;2023-03-01T03:52:22;2.53;;;1.05;;
23642;SDS011;11998;55.788;37.572;2023-03-01T03:53:24;2.17;;;0.90;;
23642;SDS011;11998;55.788;37.572;2023-03-01T03:54:26;1.83;;;1.10;;
23642;SDS011;11998;55.788;37.572;2023-03-01T03:55:26;3.07;;;1.30;;
23642;SDS011;11998;55.788;37.572;2023-03-01T03:56:30;2.22;;;0.90;;
23642;SDS011;11998;55.788;37.572;2023-03-01T03:57:31;2.37;;;0.80;;
23642;SDS011;11998;55.788;37.572;2023-03-01T03:58:31;2.90;;;1.03;;
23642;SDS011;11998;55.788;37.572;2023-03-01T03:59:32;4.37;;;1.50;;
23642;SDS011;11998;55.788;37.572;2023-03-01T04:00:39;2.00;;;0.87;;
23642;SDS011;11998;55.788;37.572;2023-03-01T04:01:41;2.88;;;1.10;;
23642;SDS011;11998;55.788;37.572;2023-03-01T04:02:42;4.27;;;1.40;;
23642;SDS011;11998;55.788;37.572;2023-03-01T04:03:43;5.17;;;1.40;;
23642;SDS011;11998;55.788;37.572;2023-03-01T04:04:46;2.70;;;0.98;;
23642;SDS011;11998;55.788;37.572;2023-03-01T04:05:50;3.22;;;1.13;;
23642;SDS011;11998;55.788;37.572;2023-03-01T04:06:51;3.38;;;1.23;;
23642;SDS011;11998;55.788;37.572;2023-03-01T04:07:52;1.80;;;0.90;;
23642;SDS011;11998;55.788;37.572;2023-03-01T04:09:01;3.67;;;1.35;;
23642;SDS011;11998;55.788;37.572;2023-03-01T04:10:03;1.77;;;1.13;;
23642;SDS011;11998;55.788;37.572;2023-03-01T04:11:04;5.35;;;1.10;;
23642;SDS011;11998;55.788;37.572;2023-03-01T04:12:23;4.70;;;1.05;;
23642;SDS011;11998;55.788;37.572;2023-03-01T04:13:24;3.33;;;1.20;;
23642;SDS011;11998;55.788;37.572;2023-03-01T04:14:25;2.63;;;1.10;;
23642;SDS011;11998;55.788;37.572;2023-03-01T04:15:26;4.23;;;1.27;;
23642;SDS011;11998;55.788;37.572;2023-03-01T04:16:27;3.00;;;0.98;;
23642;SDS011;11998;55.788;37.572;2023-03-01T04:17:27;3.70;;;1.20;;
23642;SDS011;11998;55.788;37.572;2023-03-01T04:18:28;4.60;;;1.57;;
23642;SDS011;11998;55.788;37.572;2023-03-01T04:19:28;2.57;;;1.50;;
23642;SDS011;11998;55.788;37.572;2023-03-01T04:20:30;3.53;;;1.60;;
23642;SDS011;11998;55.788;37.572;2023-03-01T04:21:33;1.70;;;1.02;;
23642;SDS011;11998;55.788;37.572;2023-03-01T04:22:36;2.95;;;1.40;;
23642;SDS011;11998;55.788;37.572;2023-03-01T04:23:37;2.58;;;0.90;;
23642;SDS011;11998;55.788;37.572;2023-03-01T04:24:38;3.23;;;1.33;;
23642;SDS011;11998;55.788;37.572;2023-03-01T04:25:39;4.57;;;1.50;;
23642;SDS011;11998;55.788;37.572;2023-03-01T04:27:49;3.77;;;1.67;;
23642;SDS011;11998;55.788;37.572;2023-03-01T04:28:50;4.40;;;1.60;;
23642;SDS011;11998;55.788;37.572;2023-03-01T04:29:50;3.80;;;1.20;;
23642;SDS011;11998;55.788;37.572;2023-03-01T04:30:51;1.97;;;1.23;;
23642;SDS011;11998;55.788;37.572;2023-03-01T04:31:53;1.55;;;1.00;;
23642;SDS011;11998;55.788;37.572;2023-03-01T04:32:54;4.70;;;1.10;;
23642;SDS011;11998;55.788;37.572;2023-03-01T04:33:54;3.80;;;1.10;;
23642;SDS011;11998;55.788;37.572;2023-03-01T04:34:55;2.70;;;1.20;;
23642;SDS011;11998;55.788;37.572;2023-03-01T04:35:56;3.07;;;1.23;;
23642;SDS011;11998;55.788;37.572;2023-03-01T04:36:57;5.28;;;1.40;;
23642;SDS011;11998;55.788;37.572;2023-03-01T04:37:58;4.20;;;1.00;;
23642;SDS011;11998;55.788;37.572;2023-03-01T04:38:58;3.43;;;1.70;;
23642;SDS011;11998;55.788;37.572;2023-03-01T04:39:59;3.30;;;1.30;;
23642;SDS011;11998;55.788;37.572;2023-03-01T04:40:59;2.47;;;1.03;;
23642;SDS011;11998;55.788;37.572;2023-03-01T04:42:00;5.90;;;1.33;;
23642;SDS011;11998;55.788;37.572;2023-03-01T04:43:01;2.20;;;1.20;;
23642;SDS011;11998;55.788;37.572;2023-03-01T04:44:02;2.35;;;1.13;;
23642;SDS011;11998;55.788;37.572;2023-03-01T04:45:03;2.73;;;1.13;;
23642;SDS011;11998;55.788;37.572;2023-03-01T04:46:14;1.77;;;1.05;;
23642;SDS011;11998;55.788;37.572;2023-03-01T04:47:16;2.58;;;1.10;;
23642;SDS011;11998;55.788;37.572;2023-03-01T04:48:17;1.53;;;0.93;;
23642;SDS011;11998;55.788;37.572;2023-03-01T04:49:17;1.93;;;1.00;;
23642;SDS011;11998;55.788;37.572;2023-03-01T04:50:18;2.50;;;0.90;;
23642;SDS011;11998;55.788;37.572;2023-03-01T04:51:23;3.08;;;1.00;;
23642;SDS011;11998;55.788;37.572;2023-03-01T04:52:24;3.33;;;1.30;;
23642;SDS011;11998;55.788;37.572;2023-03-01T04:53:25;3.97;;;1.00;;
23642;SDS011;11998;55.788;37.572;2023-03-01T04:54:26;3.65;;;1.15;;
23642;SDS011;11998;55.788;37.572;2023-03-01T04:55:26;3.60;;;1.30;;
23642;SDS011;11998;55.788;37.572;2023-03-01T04:56:28;4.13;;;1.27;;
23642;SDS011;11998;55.788;37.572;2023-03-01T04:57:28;1.47;;;0.83;;
23642;SDS011;11998;55.788;37.572;2023-03-01T04:58:29;2.35;;;1.20;;
23642;SDS011;11998;55.788;37.572;2023-03-01T04:59:30;3.70;;;1.30;;
23642;SDS011;11998;55.788;37.572;2023-03-01T05:00:31;3.77;;;1.13;;
23642;SDS011;11998;55.788;37.572;2023-03-01T05:01:31;2.70;;;1.27;;
23642;SDS011;11998;55.788;37.572;2023-03-01T05:02:32;3.47;;;1.20;;
23642;SDS011;11998;55.788;37.572;2023-03-01T05:03:32;4.13;;;1.10;;
23642;SDS011;11998;55.788;37.572;2023-03-01T05:04:32;2.10;;;1.10;;
23642;SDS011;11998;55.788;37.572;2023-03-01T05:05:34;3.40;;;1.30;;
23642;SDS011;11998;55.788;37.572;2023-03-01T05:06:36;3.58;;;1.08;;
23642;SDS011;11998;55.788;37.572;2023-03-01T05:07:36;2.97;;;1.37;;
23642;SDS011;11998;55.788;37.572;2023-03-01T05:08:37;2.67;;;1.23;;
23642;SDS011;11998;55.788;37.572;2023-03-01T05:09:38;2.38;;;1.30;;
23642;SDS011;11998;55.788;37.572;2023-03-01T05:10:39;4.63;;;1.20;;
23642;SDS011;11998;55.788;37.572;2023-03-01T05:11:41;2.58;;;1.15;;
23642;SDS011;11998;55.788;37.572;2023-03-01T05:12:41;2.43;;;1.30;;
23642;SDS011;11998;55.788;37.572;2023-03-01T05:13:42;2.97;;;1.30;;
23642;SDS011;11998;55.788;37.572;2023-03-01T05:14:42;4.03;;;1.30;;
23642;SDS011;11998;55.788;37.572;2023-03-01T05:15:43;6.53;;;1.40;;
23642;SDS011;11998;55.788;37.572;2023-03-01T05:16:43;2.87;;;1.20;;
23642;SDS011;11998;55.788;37.572;2023-03-01T05:17:44;3.53;;;1.33;;
23642;SDS011;11998;55.788;37.572;2023-03-01T05:18:45;3.13;;;1.20;;
23642;SDS011;11998;55.788;37.572;2023-03-01T05:19:46;2.87;;;1.10;;
23642;SDS011;11998;55.788;37.572;2023-03-01T05:20:46;3.03;;;1.17;;
23642;SDS011;11998;55.788;37.572;2023-03-01T05:21:47;3.87;;;1.60;;
23642;SDS011;11998;55.788;37.572;2023-03-01T05:23:04;4.60;;;1.25;;
23642;SDS011;11998;55.788;37.572;2023-03-01T05:24:05;3.50;;;1.02;;
23642;SDS011;11998;55.788;37.572;2023-03-01T05:25:10;5.57;;;1.63;;
23642;SDS011;11998;55.788;37.572;2023-03-01T05:26:11;3.73;;;1.47;;
23642;SDS011;11998;55.788;37.572;2023-03-01T05:27:12;2.38;;;1.00;;
23642;SDS011;11998;55.788;37.572;2023-03-01T05:28:13;2.10;;;1.10;;
23642;SDS011;11998;55.788;37.572;2023-03-01T05:29:14;2.77;;;1.23;;
23642;SDS011;11998;55.788;37.572;2023-03-01T05:30:14;3.40;;;1.40;;
23642;SDS011;11998;55.788;37.572;2023-03-01T05:31:15;6.63;;;1.53;;
23642;SDS011;11998;55.788;37.572;2023-03-01T05:32:16;4.33;;;1.37;;
23642;SDS011;11998;55.788;37.572;2023-03-01T05:33:16;4.90;;;1.40;;
23642;SDS011;11998;55.788;37.572;2023-03-01T05:34:19;3.72;;;1.35;;
23642;SDS011;11998;55.788;37.572;2023-03-01T05:35:23;3.83;;;1.20;;
23642;SDS011;11998;55.788;37.572;2023-03-01T05:36:24;3.08;;;1.38;;
23642;SDS011;11998;55.788;37.572;2023-03-01T05:37:24;3.47;;;1.50;;
23642;SDS011;11998;55.788;37.572;2023-03-01T05:38:25;4.03;;;1.10;;
23642;SDS011;11998;55.788;37.572;2023-03-01T05:39:26;3.77;;;1.60;;
23642;SDS011;11998;55.788;37.572;2023-03-01T05:40:28;3.67;;;1.50;;
23642;SDS011;11998;55.788;37.572;2023-03-01T05:41:29;5.15;;;1.65;;
23642;SDS011;11998;55.788;37.572;2023-03-01T05:42:29;4.23;;;1.47;;
23642;SDS011;11998;55.788;37.572;2023-03-01T05:43:31;4.40;;;1.63;;
23642;SDS011;11998;55.788;37.572;2023-03-01T05:44:34;4.50;;;1.75;;
23642;SDS011;11998;55.788;37.572;2023-03-01T05:45:36;3.20;;;1.20;;
23642;SDS011;11998;55.788;37.572;2023-03-01T05:46:38;3.22;;;1.50;;
23642;SDS011;11998;55.788;37.572;2023-03-01T05:47:39;4.70;;;1.40;;
23642;SDS011;11998;55.788;37.572;2023-03-01T05:48:43;3.92;;;1.25;;
23642;SDS011;11998;55.788;37.572;2023-03-01T05:49:44;4.47;;;1.20;;
23642;SDS011;11998;55.788;37.572;2023-03-01T05:50:45;2.33;;;1.20;;
23642;SDS011;11998;55.788;37.572;2023-03-01T05:51:47;5.65;;;1.35;;
23642;SDS011;11998;55.788;37.572;2023-03-01T05:53:58;3.63;;;1.38;;
23642;SDS011;11998;55.788;37.572;2023-03-01T05:55:00;4.27;;;1.30;;
23642;SDS011;11998;55.788;37.572;2023-03-01T05:56:02;2.83;;;1.27;;
23642;SDS011;11998;55.788;37.572;2023-03-01T05:57:04;3.85;;;1.25;;
23642;SDS011;11998;55.788;37.572;2023-03-01T05:58:06;6.03;;;1.83;;
23642;SDS011;11998;55.788;37.572;2023-03-01T05:59:11;2.97;;;1.27;;
23642;SDS011;11998;55.788;37.572;2023-03-01T06:00:12;3.13;;;1.42;;
23642;SDS011;11998;55.788;37.572;2023-03-01T06:01:14;3.83;;;1.13;;
23642;SDS011;11998;55.788;37.572;2023-03-01T06:02:15;4.13;;;1.30;;
23642;SDS011;11998;55.788;37.572;2023-03-01T06:03:16;2.07;;;1.30;;
23642;SDS011;11998;55.788;37.572;2023-03-01T06:04:17;2.58;;;1.30;;
23642;SDS011;11998;55.788;37.572;2023-03-01T06:05:18;4.30;;;1.30;;
23642;SDS011;11998;55.788;37.572;2023-03-01T06:06:18;4.33;;;1.40;;
23642;SDS011;11998;55.788;37.572;2023-03-01T06:07:19;2.47;;;1.20;;
23642;SDS011;11998;55.788;37.572;2023-03-01T06:08:19;5.17;;;1.43;;
23642;SDS011;11998;55.788;37.572;2023-03-01T06:09:22;2.92;;;1.25;;
23642;SDS011;11998;55.788;37.572;2023-03-01T06:10:22;4.03;;;1.87;;
23642;SDS011;11998;55.788;37.572;2023-03-01T06:11:23;5.40;;;1.60;;
23642;SDS011;11998;55.788;37.572;2023-03-01T06:12:23;4.37;;;1.43;;
23642;SDS011;11998;55.788;37.572;2023-03-01T06:13:24;2.87;;;1.53;;
23642;SDS011;11998;55.788;37.572;2023-03-01T06:14:25;4.77;;;1.60;;
23642;SDS011;11998;55.788;37.572;2023-03-01T06:15:25;6.00;;;1.80;;
23642;SDS011;11998;55.788;37.572;2023-03-01T06:16:26;2.20;;;1.20;;
23642;SDS011;11998;55.788;37.572;2023-03-01T06:17:28;3.80;;;1.10;;
23642;SDS011;11998;55.788;37.572;2023-03-01T06:18:30;3.53;;;1.48;;
23642;SDS011;11998;55.788;37.572;2023-03-01T06:19:30;4.53;;;1.30;;
23642;SDS011;11998;55.788;37.572;2023-03-01T06:20:31;4.13;;;1.70;;
23642;SDS011;11998;55.788;37.572;2023-03-01T06:21:31;4.20;;;1.30;;